sensor_id;sensor_type;location;lat;lon;timestamp;pressure;altitude;pressure_sealevel;temperature;humidity
14966;BME280;7577;45.226;5.798;2022-12-07T00:01:07;98155.01;;;4.16;100.00
14966;BME280;7577;45.226;5.798;2022-12-07T00:03:39;98154.14;;;4.13;100.00
14966;BME280;7577;45.226;5.798;2022-12-07T00:06:11;98152.75;;;4.11;100.00
14966;BME280;7577;45.226;5.798;2022-12-07T00:08:41;98147.59;;;4.09;100.00
14966;BME280;7577;45.226;5.798;2022-12-07T00:11:13;98147.59;;;4.09;100.00
14966;BME280;7577;45.226;5.798;2022-12-07T00:16:26;98142.53;;;4.13;100.00
14966;BME280;7577;45.226;5.798;2022-12-07T00:18:57;98131.99;;;4.11;100.00
14966;BME280;7577;45.226;5.798;2022-12-07T00:21:29;98145.22;;;4.13;100.00
14966;BME280;7577;45.226;5.798;2022-12-07T00:24:00;98139.04;;;4.12;100.00
14966;BME280;7577;45.226;5.798;2022-12-07T00:26:31;98134.45;;;4.13;100.00
14966;BME280;7577;45.226;5.798;2022-12-07T00:29:04;98134.45;;;4.13;100.00
14966;BME280;7577;45.226;5.798;2022-12-07T00:31:36;98143.13;;;4.15;100.00
14966;BME280;7577;45.226;5.798;2022-12-07T00:34:11;98139.64;;;4.17;100.00
14966;BME280;7577;45.226;5.798;2022-12-07T00:36:40;98133.25;;;4.06;100.00
14966;BME280;7577;45.226;5.798;2022-12-07T00:41:51;98130.83;;;3.91;100.00
14966;BME280;7577;45.226;5.798;2022-12-07T00:44:21;98130.83;;;3.91;100.00
14966;BME280;7577;45.226;5.798;2022-12-07T00:46:51;98127.87;;;4.06;100.00
14966;BME280;7577;45.226;5.798;2022-12-07T00:49:21;98135.63;;;4.03;100.00
14966;BME280;7577;45.226;5.798;2022-12-07T00:51:51;98136.82;;;4.09;100.00
14966;BME280;7577;45.226;5.798;2022-12-07T00:54:22;98143.88;;;3.82;100.00
14966;BME280;7577;45.226;5.798;2022-12-07T00:56:52;98137.27;;;3.90;100.00
14966;BME280;7577;45.226;5.798;2022-12-07T01:02:02;98132.69;;;4.04;100.00
14966;BME280;7577;45.226;5.798;2022-12-07T01:04:34;98177.75;;;4.09;100.00
14966;BME280;7577;45.226;5.798;2022-12-07T01:07:05;98138.53;;;3.85;100.00
14966;BME280;7577;45.226;5.798;2022-12-07T01:09:35;98134.80;;;4.02;100.00
14966;BME280;7577;45.226;5.798;2022-12-07T01:14:48;98140.95;;;4.14;100.00
14966;BME280;7577;45.226;5.798;2022-12-07T01:17:18;98140.42;;;4.15;100.00
14966;BME280;7577;45.226;5.798;2022-12-07T01:19:48;98137.22;;;4.18;100.00
14966;BME280;7577;45.226;5.798;2022-12-07T01:22:19;98144.79;;;4.18;100.00
14966;BME280;7577;45.226;5.798;2022-12-07T01:24:50;98146.69;;;4.04;100.00
14966;BME280;7577;45.226;5.798;2022-12-07T01:27:21;98141.89;;;4.06;100.00
14966;BME280;7577;45.226;5.798;2022-12-07T01:29:52;98163.44;;;4.06;100.00
14966;BME280;7577;45.226;5.798;2022-12-07T01:32:22;98141.36;;;3.92;100.00
14966;BME280;7577;45.226;5.798;2022-12-07T01:34:52;98142.98;;;3.93;100.00
14966;BME280;7577;45.226;5.798;2022-12-07T01:40:05;98143.19;;;4.03;100.00
14966;BME280;7577;45.226;5.798;2022-12-07T01:42:36;98143.19;;;4.03;100.00
14966;BME280;7577;45.226;5.798;2022-12-07T01:48:19;98128.98;;;4.08;100.00
14966;BME280;7577;45.226;5.798;2022-12-07T01:50:53;98134.30;;;3.89;100.00
14966;BME280;7577;45.226;5.798;2022-12-07T01:53:26;98130.84;;;3.49;100.00
14966;BME280;7577;45.226;5.798;2022-12-07T01:55:59;98130.84;;;3.49;100.00
14966;BME280;7577;45.226;5.798;2022-12-07T02:01:10;98121.83;;;3.85;100.00
14966;BME280;7577;45.226;5.798;2022-12-07T02:03:42;98125.56;;;3.98;100.00
14966;BME280;7577;45.226;5.798;2022-12-07T02:06:15;98122.67;;;4.02;100.00
14966;BME280;7577;45.226;5.798;2022-12-07T02:11:28;98114.08;;;4.03;100.00
14966;BME280;7577;45.226;5.798;2022-12-07T02:13:58;98118.48;;;4.09;100.00
14966;BME280;7577;45.226;5.798;2022-12-07T02:16:34;98116.85;;;4.08;100.00
14966;BME280;7577;45.226;5.798;2022-12-07T02:21:58;98112.61;;;3.95;100.00
14966;BME280;7577;45.226;5.798;2022-12-07T02:24:40;98117.59;;;3.89;100.00
14966;BME280;7577;45.226;5.798;2022-12-07T02:27:19;98122.40;;;4.01;100.00
14966;BME280;7577;45.226;5.798;2022-12-07T02:29:53;98116.70;;;3.84;100.00
14966;BME280;7577;45.226;5.798;2022-12-07T02:35:07;98115.58;;;3.96;100.00
14966;BME280;7577;45.226;5.798;2022-12-07T02:40:23;98111.75;;;4.09;100.00
14966;BME280;7577;45.226;5.798;2022-12-07T02:42:57;98115.06;;;3.97;100.00
14966;BME280;7577;45.226;5.798;2022-12-07T02:45:28;98115.06;;;3.97;100.00
14966;BME280;7577;45.226;5.798;2022-12-07T02:48:01;98119.96;;;3.86;100.00
14966;BME280;7577;45.226;5.798;2022-12-07T02:50:32;98117.80;;;3.71;100.00
14966;BME280;7577;45.226;5.798;2022-12-07T02:53:02;98120.13;;;3.51;100.00
14966;BME280;7577;45.226;5.798;2022-12-07T02:55:35;98119.10;;;3.69;100.00
14966;BME280;7577;45.226;5.798;2022-12-07T02:58:23;98119.10;;;3.69;100.00
14966;BME280;7577;45.226;5.798;2022-12-07T03:01:00;98122.89;;;3.84;100.00
14966;BME280;7577;45.226;5.798;2022-12-07T03:03:28;98122.89;;;3.84;100.00
14966;BME280;7577;45.226;5.798;2022-12-07T03:06:07;98114.27;;;3.68;100.00
14966;BME280;7577;45.226;5.798;2022-12-07T03:08:46;98114.27;;;3.68;100.00
14966;BME280;7577;45.226;5.798;2022-12-07T03:14:05;98106.09;;;3.77;100.00
14966;BME280;7577;45.226;5.798;2022-12-07T03:16:37;98104.02;;;3.68;100.00
14966;BME280;7577;45.226;5.798;2022-12-07T03:19:13;98107.53;;;3.68;100.00
14966;BME280;7577;45.226;5.798;2022-12-07T03:21:44;98107.53;;;3.68;100.00
14966;BME280;7577;45.226;5.798;2022-12-07T03:24:17;98109.52;;;3.89;100.00
14966;BME280;7577;45.226;5.798;2022-12-07T03:26:50;98109.52;;;3.89;100.00
14966;BME280;7577;45.226;5.798;2022-12-07T03:29:24;98101.00;;;3.95;100.00
14966;BME280;7577;45.226;5.798;2022-12-07T03:31:58;98110.47;;;3.97;100.00
14966;BME280;7577;45.226;5.798;2022-12-07T03:34:31;98102.13;;;3.82;100.00
14966;BME280;7577;45.226;5.798;2022-12-07T03:39:52;98101.65;;;3.71;100.00
14966;BME280;7577;45.226;5.798;2022-12-07T03:42:22;98107.03;;;3.71;100.00
14966;BME280;7577;45.226;5.798;2022-12-07T03:44:52;98097.20;;;3.63;100.00
14966;BME280;7577;45.226;5.798;2022-12-07T03:50:07;98108.30;;;3.52;100.00
14966;BME280;7577;45.226;5.798;2022-12-07T03:52:40;98098.33;;;3.39;100.00
14966;BME280;7577;45.226;5.798;2022-12-07T03:55:14;98098.59;;;3.51;100.00
14966;BME280;7577;45.226;5.798;2022-12-07T03:57:45;98136.19;;;3.60;100.00
14966;BME280;7577;45.226;5.798;2022-12-07T04:00:17;98097.77;;;3.37;100.00
14966;BME280;7577;45.226;5.798;2022-12-07T04:05:31;98085.23;;;3.42;100.00
14966;BME280;7577;45.226;5.798;2022-12-07T04:08:01;98090.14;;;3.59;100.00
14966;BME280;7577;45.226;5.798;2022-12-07T04:13:11;98082.09;;;3.76;100.00
14966;BME280;7577;45.226;5.798;2022-12-07T04:15:41;98082.09;;;3.76;100.00
14966;BME280;7577;45.226;5.798;2022-12-07T04:18:11;98084.23;;;3.90;100.00
14966;BME280;7577;45.226;5.798;2022-12-07T04:20:41;98083.89;;;3.87;100.00
14966;BME280;7577;45.226;5.798;2022-12-07T04:23:11;98079.84;;;3.87;100.00
14966;BME280;7577;45.226;5.798;2022-12-07T04:25:41;98078.19;;;4.00;100.00
14966;BME280;7577;45.226;5.798;2022-12-07T04:28:12;98078.19;;;4.00;100.00
14966;BME280;7577;45.226;5.798;2022-12-07T04:33:26;98080.80;;;3.95;100.00
14966;BME280;7577;45.226;5.798;2022-12-07T04:35:56;98078.97;;;3.81;100.00
14966;BME280;7577;45.226;5.798;2022-12-07T04:38:26;98078.97;;;3.81;100.00
14966;BME280;7577;45.226;5.798;2022-12-07T04:40:56;98084.36;;;3.98;100.00
14966;BME280;7577;45.226;5.798;2022-12-07T04:43:27;98090.16;;;4.06;100.00
14966;BME280;7577;45.226;5.798;2022-12-07T04:45:57;98081.67;;;3.98;100.00
14966;BME280;7577;45.226;5.798;2022-12-07T04:48:28;98078.73;;;3.99;100.00
14966;BME280;7577;45.226;5.798;2022-12-07T04:53:39;98075.89;;;3.92;100.00
14966;BME280;7577;45.226;5.798;2022-12-07T04:56:09;98076.27;;;3.81;100.00
14966;BME280;7577;45.226;5.798;2022-12-07T04:58:39;98072.52;;;3.82;100.00
14966;BME280;7577;45.226;5.798;2022-12-07T05:01:09;98067.30;;;3.92;100.00
14966;BME280;7577;45.226;5.798;2022-12-07T05:03:39;98070.23;;;3.91;100.00
14966;BME280;7577;45.226;5.798;2022-12-07T05:06:09;98068.20;;;3.98;100.00
14966;BME280;7577;45.226;5.798;2022-12-07T05:11:21;98061.47;;;3.98;100.00
14966;BME280;7577;45.226;5.798;2022-12-07T05:14:22;98061.47;;;3.98;100.00
14966;BME280;7577;45.226;5.798;2022-12-07T05:16:53;98057.70;;;3.99;100.00
14966;BME280;7577;45.226;5.798;2022-12-07T05:19:23;98057.30;;;4.07;100.00
14966;BME280;7577;45.226;5.798;2022-12-07T05:24:38;98048.08;;;4.03;100.00
14966;BME280;7577;45.226;5.798;2022-12-07T05:27:08;98046.05;;;4.10;100.00
14966;BME280;7577;45.226;5.798;2022-12-07T05:29:38;98043.43;;;4.15;100.00
14966;BME280;7577;45.226;5.798;2022-12-07T05:32:08;98037.70;;;4.11;100.00
14966;BME280;7577;45.226;5.798;2022-12-07T05:34:38;98031.36;;;4.01;100.00
14966;BME280;7577;45.226;5.798;2022-12-07T05:37:08;98033.34;;;4.08;100.00
14966;BME280;7577;45.226;5.798;2022-12-07T05:39:38;98022.64;;;4.13;100.00
14966;BME280;7577;45.226;5.798;2022-12-07T05:42:11;98022.64;;;4.13;100.00
14966;BME280;7577;45.226;5.798;2022-12-07T05:44:41;98022.08;;;4.11;100.00
14966;BME280;7577;45.226;5.798;2022-12-07T05:47:13;98024.31;;;4.00;100.00
14966;BME280;7577;45.226;5.798;2022-12-07T05:49:43;98020.16;;;3.92;100.00
14966;BME280;7577;45.226;5.798;2022-12-07T05:52:13;98020.16;;;3.92;100.00
14966;BME280;7577;45.226;5.798;2022-12-07T05:54:43;98028.12;;;4.01;100.00
14966;BME280;7577;45.226;5.798;2022-12-07T05:59:57;98039.44;;;4.01;100.00
14966;BME280;7577;45.226;5.798;2022-12-07T06:02:27;98039.44;;;4.01;100.00
14966;BME280;7577;45.226;5.798;2022-12-07T06:04:57;98041.27;;;3.98;100.00
14966;BME280;7577;45.226;5.798;2022-12-07T06:07:27;98045.70;;;3.90;100.00
14966;BME280;7577;45.226;5.798;2022-12-07T06:12:38;98043.52;;;4.03;100.00
14966;BME280;7577;45.226;5.798;2022-12-07T06:15:10;98042.38;;;3.85;100.00
14966;BME280;7577;45.226;5.798;2022-12-07T06:20:22;98036.98;;;3.99;100.00
14966;BME280;7577;45.226;5.798;2022-12-07T06:22:52;98036.98;;;3.99;100.00
14966;BME280;7577;45.226;5.798;2022-12-07T06:25:22;98044.08;;;3.89;100.00
14966;BME280;7577;45.226;5.798;2022-12-07T06:27:52;98041.78;;;3.97;100.00
14966;BME280;7577;45.226;5.798;2022-12-07T06:30:24;98048.16;;;3.91;100.00
14966;BME280;7577;45.226;5.798;2022-12-07T06:32:55;98047.21;;;4.00;100.00
14966;BME280;7577;45.226;5.798;2022-12-07T06:35:26;98047.72;;;3.97;100.00
14966;BME280;7577;45.226;5.798;2022-12-07T06:37:56;98045.50;;;4.10;100.00
14966;BME280;7577;45.226;5.798;2022-12-07T06:43:06;98045.65;;;4.20;100.00
14966;BME280;7577;45.226;5.798;2022-12-07T06:45:37;98040.94;;;4.11;100.00
14966;BME280;7577;45.226;5.798;2022-12-07T06:50:52;98040.09;;;4.27;100.00
14966;BME280;7577;45.226;5.798;2022-12-07T06:53:22;98045.53;;;4.13;100.00
14966;BME280;7577;45.226;5.798;2022-12-07T06:55:52;98039.28;;;4.07;100.00
14966;BME280;7577;45.226;5.798;2022-12-07T06:58:23;98041.63;;;4.04;100.00
14966;BME280;7577;45.226;5.798;2022-12-07T07:00:52;98041.59;;;4.01;100.00
14966;BME280;7577;45.226;5.798;2022-12-07T07:03:23;98044.39;;;4.09;100.00
14966;BME280;7577;45.226;5.798;2022-12-07T07:05:53;98039.04;;;4.11;100.00
14966;BME280;7577;45.226;5.798;2022-12-07T07:08:23;98033.27;;;4.03;100.00
14966;BME280;7577;45.226;5.798;2022-12-07T07:13:35;98037.08;;;4.23;100.00
14966;BME280;7577;45.226;5.798;2022-12-07T07:18:49;98030.09;;;4.06;100.00
14966;BME280;7577;45.226;5.798;2022-12-07T07:21:19;98043.52;;;4.03;100.00
14966;BME280;7577;45.226;5.798;2022-12-07T07:23:50;98038.33;;;3.99;100.00
14966;BME280;7577;45.226;5.798;2022-12-07T07:26:20;98047.33;;;3.74;100.00
14966;BME280;7577;45.226;5.798;2022-12-07T07:28:50;98050.97;;;3.82;100.00
14966;BME280;7577;45.226;5.798;2022-12-07T07:31:20;98054.89;;;3.91;100.00
14966;BME280;7577;45.226;5.798;2022-12-07T07:33:50;98059.69;;;3.89;100.00
14966;BME280;7577;45.226;5.798;2022-12-07T07:39:02;98056.91;;;4.15;100.00
14966;BME280;7577;45.226;5.798;2022-12-07T07:44:19;98049.27;;;4.09;100.00
14966;BME280;7577;45.226;5.798;2022-12-07T07:46:49;98056.44;;;4.04;100.00
14966;BME280;7577;45.226;5.798;2022-12-07T07:49:20;98055.37;;;4.05;100.00
14966;BME280;7577;45.226;5.798;2022-12-07T07:51:50;98060.59;;;3.95;100.00
14966;BME280;7577;45.226;5.798;2022-12-07T07:54:20;98056.05;;;3.95;100.00
14966;BME280;7577;45.226;5.798;2022-12-07T07:56:50;98057.15;;;3.97;100.00
14966;BME280;7577;45.226;5.798;2022-12-07T07:59:20;98057.50;;;4.03;100.00
14966;BME280;7577;45.226;5.798;2022-12-07T08:01:50;98051.21;;;3.97;100.00
14966;BME280;7577;45.226;5.798;2022-12-07T08:07:06;98045.30;;;3.98;100.00
14966;BME280;7577;45.226;5.798;2022-12-07T08:09:37;98056.48;;;4.06;100.00
14966;BME280;7577;45.226;5.798;2022-12-07T08:14:52;98058.50;;;3.97;100.00
14966;BME280;7577;45.226;5.798;2022-12-07T08:20:02;98057.42;;;4.14;100.00
14966;BME280;7577;45.226;5.798;2022-12-07T08:22:32;98065.74;;;4.13;100.00
14966;BME280;7577;45.226;5.798;2022-12-07T08:27:42;98066.38;;;4.17;100.00
14966;BME280;7577;45.226;5.798;2022-12-07T08:30:13;98076.70;;;4.23;100.00
14966;BME280;7577;45.226;5.798;2022-12-07T08:35:26;98074.52;;;4.39;100.00
14966;BME280;7577;45.226;5.798;2022-12-07T08:40:35;98078.05;;;4.23;100.00
14966;BME280;7577;45.226;5.798;2022-12-07T08:45:47;98082.73;;;4.13;100.00
14966;BME280;7577;45.226;5.798;2022-12-07T08:48:17;98087.14;;;4.19;100.00
14966;BME280;7577;45.226;5.798;2022-12-07T08:50:49;98081.58;;;4.26;100.00
14966;BME280;7577;45.226;5.798;2022-12-07T08:53:20;98084.00;;;4.25;100.00
14966;BME280;7577;45.226;5.798;2022-12-07T08:55:51;98081.30;;;4.25;100.00
14966;BME280;7577;45.226;5.798;2022-12-07T08:58:21;98090.72;;;4.41;100.00
14966;BME280;7577;45.226;5.798;2022-12-07T09:00:52;98088.06;;;4.44;100.00
14966;BME280;7577;45.226;5.798;2022-12-07T09:06:03;98086.20;;;4.44;100.00
14966;BME280;7577;45.226;5.798;2022-12-07T09:08:36;98094.87;;;4.49;100.00
14966;BME280;7577;45.226;5.798;2022-12-07T09:11:09;98086.02;;;4.51;100.00
14966;BME280;7577;45.226;5.798;2022-12-07T09:13:45;98089.76;;;4.47;100.00
14966;BME280;7577;45.226;5.798;2022-12-07T09:16:15;98096.33;;;4.54;100.00
14966;BME280;7577;45.226;5.798;2022-12-07T09:18:48;98096.05;;;4.55;100.00
14966;BME280;7577;45.226;5.798;2022-12-07T09:21:18;98099.23;;;4.50;100.00
14966;BME280;7577;45.226;5.798;2022-12-07T09:23:48;98103.80;;;4.49;100.00
14966;BME280;7577;45.226;5.798;2022-12-07T09:26:22;98099.58;;;4.56;100.00
14966;BME280;7577;45.226;5.798;2022-12-07T09:28:56;98100.48;;;4.61;100.00
14966;BME280;7577;45.226;5.798;2022-12-07T09:31:27;98102.97;;;4.65;100.00
14966;BME280;7577;45.226;5.798;2022-12-07T09:34:01;98099.99;;;4.64;100.00
14966;BME280;7577;45.226;5.798;2022-12-07T09:36:36;98103.04;;;4.70;100.00
14966;BME280;7577;45.226;5.798;2022-12-07T09:41:56;98104.97;;;4.75;100.00
14966;BME280;7577;45.226;5.798;2022-12-07T09:44:31;98102.27;;;4.75;100.00
14966;BME280;7577;45.226;5.798;2022-12-07T09:47:10;98106.59;;;4.73;100.00
14966;BME280;7577;45.226;5.798;2022-12-07T09:49:42;98102.38;;;4.63;100.00
14966;BME280;7577;45.226;5.798;2022-12-07T09:52:24;98111.91;;;4.52;100.00
14966;BME280;7577;45.226;5.798;2022-12-07T09:54:57;98108.19;;;4.55;100.00
14966;BME280;7577;45.226;5.798;2022-12-07T09:57:30;98106.22;;;4.67;100.00
14966;BME280;7577;45.226;5.798;2022-12-07T10:00:14;98109.09;;;4.77;100.00
14966;BME280;7577;45.226;5.798;2022-12-07T10:02:51;98098.92;;;4.84;100.00
14966;BME280;7577;45.226;5.798;2022-12-07T10:05:24;98095.84;;;4.76;100.00
14966;BME280;7577;45.226;5.798;2022-12-07T10:07:56;98092.28;;;4.73;100.00
14966;BME280;7577;45.226;5.798;2022-12-07T10:21:24;98068.80;;;4.71;100.00
14966;BME280;7577;45.226;5.798;2022-12-07T10:24:03;98071.20;;;4.70;100.00
14966;BME280;7577;45.226;5.798;2022-12-07T10:26:39;98064.64;;;4.82;100.00
14966;BME280;7577;45.226;5.798;2022-12-07T10:29:17;98065.87;;;4.75;100.00
14966;BME280;7577;45.226;5.798;2022-12-07T10:31:52;98062.78;;;4.85;100.00
14966;BME280;7577;45.226;5.798;2022-12-07T10:34:35;98060.52;;;4.58;100.00
14966;BME280;7577;45.226;5.798;2022-12-07T10:37:16;98051.30;;;4.54;100.00
14966;BME280;7577;45.226;5.798;2022-12-07T10:39:48;98044.39;;;4.80;100.00
14966;BME280;7577;45.226;5.798;2022-12-07T10:45:13;98041.41;;;5.00;100.00
14966;BME280;7577;45.226;5.798;2022-12-07T10:50:48;98036.60;;;4.83;100.00
14966;BME280;7577;45.226;5.798;2022-12-07T10:53:31;98036.30;;;4.80;100.00
14966;BME280;7577;45.226;5.798;2022-12-07T10:56:15;98039.91;;;4.90;100.00
14966;BME280;7577;45.226;5.798;2022-12-07T10:58:54;98036.48;;;4.95;100.00
14966;BME280;7577;45.226;5.798;2022-12-07T11:04:21;98036.05;;;5.03;100.00
14966;BME280;7577;45.226;5.798;2022-12-07T11:07:00;98027.22;;;4.88;100.00
14966;BME280;7577;45.226;5.798;2022-12-07T11:09:58;98022.16;;;4.73;100.00
14966;BME280;7577;45.226;5.798;2022-12-07T11:12:36;98024.22;;;4.85;100.00
14966;BME280;7577;45.226;5.798;2022-12-07T11:15:12;98024.17;;;5.04;100.00
14966;BME280;7577;45.226;5.798;2022-12-07T11:17:47;98009.22;;;4.94;100.00
14966;BME280;7577;45.226;5.798;2022-12-07T11:20:29;98004.16;;;5.21;100.00
14966;BME280;7577;45.226;5.798;2022-12-07T11:25:46;98004.08;;;5.40;100.00
14966;BME280;7577;45.226;5.798;2022-12-07T11:28:25;98011.66;;;5.41;100.00
14966;BME280;7577;45.226;5.798;2022-12-07T11:33:40;98002.87;;;5.55;100.00
14966;BME280;7577;45.226;5.798;2022-12-07T11:36:20;98005.63;;;5.34;100.00
14966;BME280;7577;45.226;5.798;2022-12-07T11:41:40;97997.37;;;5.45;100.00
14966;BME280;7577;45.226;5.798;2022-12-07T11:44:23;97999.38;;;5.31;100.00
14966;BME280;7577;45.226;5.798;2022-12-07T11:46:53;98003.87;;;5.47;100.00
14966;BME280;7577;45.226;5.798;2022-12-07T11:49:31;97992.50;;;5.45;100.00
14966;BME280;7577;45.226;5.798;2022-12-07T11:52:04;97990.69;;;5.53;100.00
14966;BME280;7577;45.226;5.798;2022-12-07T11:54:40;97988.59;;;5.57;100.00
14966;BME280;7577;45.226;5.798;2022-12-07T11:57:14;97981.83;;;5.31;100.00
14966;BME280;7577;45.226;5.798;2022-12-07T11:59:56;97981.42;;;5.44;100.00
14966;BME280;7577;45.226;5.798;2022-12-07T12:02:24;97983.42;;;5.53;100.00
14966;BME280;7577;45.226;5.798;2022-12-07T12:05:02;97985.61;;;5.56;99.30
14966;BME280;7577;45.226;5.798;2022-12-07T12:07:32;97976.38;;;5.50;98.88
14966;BME280;7577;45.226;5.798;2022-12-07T12:10:15;97978.50;;;5.48;98.86
14966;BME280;7577;45.226;5.798;2022-12-07T12:16:13;97981.86;;;5.33;98.26
14966;BME280;7577;45.226;5.798;2022-12-07T12:19:05;97981.86;;;5.33;98.26
14966;BME280;7577;45.226;5.798;2022-12-07T12:24:44;97978.23;;;5.47;99.92
14966;BME280;7577;45.226;5.798;2022-12-07T12:27:20;97979.02;;;5.47;99.41
14966;BME280;7577;45.226;5.798;2022-12-07T12:29:54;97984.50;;;5.52;99.20
14966;BME280;7577;45.226;5.798;2022-12-07T12:35:21;97974.45;;;5.48;99.33
14966;BME280;7577;45.226;5.798;2022-12-07T12:40:45;97974.36;;;5.38;100.00
14966;BME280;7577;45.226;5.798;2022-12-07T12:43:43;97968.04;;;5.27;100.00
14966;BME280;7577;45.226;5.798;2022-12-07T12:56:26;97966.08;;;5.47;99.15
14966;BME280;7577;45.226;5.798;2022-12-07T13:02:21;97962.05;;;5.49;98.29
14966;BME280;7577;45.226;5.798;2022-12-07T13:05:03;97958.50;;;5.46;97.94
14966;BME280;7577;45.226;5.798;2022-12-07T13:07:54;97962.89;;;5.52;97.77
14966;BME280;7577;45.226;5.798;2022-12-07T13:10:40;97955.91;;;5.56;97.75
14966;BME280;7577;45.226;5.798;2022-12-07T13:16:53;97952.16;;;5.60;97.62
14966;BME280;7577;45.226;5.798;2022-12-07T13:25:40;97941.16;;;5.69;97.62
14966;BME280;7577;45.226;5.798;2022-12-07T13:28:16;97937.34;;;5.65;96.24
14966;BME280;7577;45.226;5.798;2022-12-07T13:31:00;97937.34;;;5.65;96.24
14966;BME280;7577;45.226;5.798;2022-12-07T13:33:41;97931.95;;;5.67;96.54
14966;BME280;7577;45.226;5.798;2022-12-07T13:36:24;97931.39;;;5.63;96.20
14966;BME280;7577;45.226;5.798;2022-12-07T13:39:15;97926.55;;;5.67;96.29
14966;BME280;7577;45.226;5.798;2022-12-07T13:41:32;97921.41;;;5.66;96.08
14966;BME280;7577;45.226;5.798;2022-12-07T13:44:07;97921.41;;;5.66;96.08
14966;BME280;7577;45.226;5.798;2022-12-07T13:46:44;97919.77;;;5.62;96.94
14966;BME280;7577;45.226;5.798;2022-12-07T13:52:18;97919.22;;;5.31;99.39
14966;BME280;7577;45.226;5.798;2022-12-07T13:54:54;97918.97;;;5.33;99.43
14966;BME280;7577;45.226;5.798;2022-12-07T13:57:27;97919.58;;;5.42;98.58
14966;BME280;7577;45.226;5.798;2022-12-07T13:59:59;97915.23;;;5.39;98.17
14966;BME280;7577;45.226;5.798;2022-12-07T14:02:31;97923.76;;;5.55;96.81
14966;BME280;7577;45.226;5.798;2022-12-07T14:07:57;97928.59;;;5.53;97.32
14966;BME280;7577;45.226;5.798;2022-12-07T14:13:29;97930.20;;;5.54;96.92
14966;BME280;7577;45.226;5.798;2022-12-07T14:15:55;97933.06;;;5.11;98.31
14966;BME280;7577;45.226;5.798;2022-12-07T14:18:29;97924.05;;;5.00;99.67
14966;BME280;7577;45.226;5.798;2022-12-07T14:21:15;97920.52;;;5.00;100.00
14966;BME280;7577;45.226;5.798;2022-12-07T14:23:45;97922.73;;;4.81;100.00
14966;BME280;7577;45.226;5.798;2022-12-07T14:29:32;97925.24;;;5.12;99.92
14966;BME280;7577;45.226;5.798;2022-12-07T14:35:09;97926.92;;;4.91;100.00
14966;BME280;7577;45.226;5.798;2022-12-07T14:37:42;97926.92;;;4.91;100.00
14966;BME280;7577;45.226;5.798;2022-12-07T14:40:14;97927.09;;;4.82;100.00
14966;BME280;7577;45.226;5.798;2022-12-07T14:42:47;97925.23;;;4.88;100.00
14966;BME280;7577;45.226;5.798;2022-12-07T14:45:19;97925.27;;;4.90;100.00
14966;BME280;7577;45.226;5.798;2022-12-07T14:47:50;97924.49;;;4.92;100.00
14966;BME280;7577;45.226;5.798;2022-12-07T14:50:20;97920.23;;;4.75;100.00
14966;BME280;7577;45.226;5.798;2022-12-07T14:52:54;97919.41;;;4.72;100.00
14966;BME280;7577;45.226;5.798;2022-12-07T14:55:26;97922.27;;;4.87;100.00
14966;BME280;7577;45.226;5.798;2022-12-07T15:00:48;97923.20;;;4.97;100.00
